AirNav   Everest Fuels
 
 1460 users online  

FA47 South Dade Community Health Center Heliport
Homestead, Florida, USA

GOING TO HOMESTEAD?


FAA INFORMATION EFFECTIVE 05 DECEMBER 2019

Location

FAA Identifier: FA47
Lat/Long: 25-33-58.2500N 080-21-29.4500W
25-33.970833N 080-21.490833W
25.5661806,-80.3581806
(estimated)
Elevation: 7 ft. / 2 m (estimated)
Variation: 03W (1985)
From city: 8 miles NE of HOMESTEAD, FL
Time zone: UTC -5 (UTC -4 during Daylight Saving Time)
Zip code: 33190

Heliport Operations

Heliport use: Private use, MEDICAL.
Activation date: 03/1976
Control tower: no
ARTCC: MIAMI CENTER
FSS: MIAMI FLIGHT SERVICE STATION
Attendance: CONTINUOUS
Wind indicator: yes
Segmented circle: no
Lights: SS-SR
Beacon: white-green (lighted land airport)
Operates sunset to sunrise.

Heliport Communications

WX ASOS at TMB (6 nm NW): PHONE 305-235-1332
WX AWOS-3 at X51 (11 nm W): 118.375 ((305) 247-2791)
WX ASOS at MIA (14 nm N): PHONE 305-870-0235

Nearby radio navigation aids

VOR radial/distance  VOR name  Freq  Var
DHPr186/14.0DOLPHIN VORTAC113.9004W
VKZr229/15.7VIRGINIA KEY VOR/DME117.1004W
FLLr205/32.2FORT LAUDERDALE VOR/DME114.4006W

Heliport Services

Runway Information

Helipad H1

Dimensions: 114 x 86 ft. / 35 x 26 m
Surface: asphalt/gravel, in fair condition
Runway edge lights: PERI
Latitude: 25-33.970833N
Longitude: 080-21.490833W
Elevation: 7.0 ft.
Traffic pattern: leftleft
Markings: none, in fair condition

Heliport Ownership and Management from official FAA records

Ownership: Publicly-owned
Owner: METROPOLITAN DADE COUNTY
111 NW 1ST STREET
MIAMI, FL 33128
Manager: BRODES H. HARTLEY, JR.
10300 SW 216TH STREET
MIAMI, FL 33190
Phone (305) 252-4853

Additional Remarks

FOR CD CTC MIAMI APCH AT 305-869-5432

Instrument Procedures

There are no published instrument procedures at FA47.

Some nearby airports with instrument procedures:

KHST - Homestead Air Reserve Base (5 nm S)
KTMB - Miami Executive Airport (6 nm NW)
X51 - Miami Homestead General Aviation Airport (11 nm W)
KMIA - Miami International Airport (14 nm N)
07FA - Ocean Reef Club Airport (15 nm S)
 
Loc | Ops | Rwys | IFR | FBO | Links
Com | Nav | Svcs | Stats | Notes

Reliance Aviation
AirBoss

 
Area around FA47 (South Dade Community Health Center Heliport)
 
Road maps at: MapQuest Bing Google
 
Aerial photo
No photo
 
Sectional chart

 
Airport distance calculator
Flying to South Dade Community Health Center Heliport? Find the distance to fly.

From to FA47

Sunrise and sunset
Times for 06-Dec-2019
 Local
(UTC-5)
 Zulu
(UTC)
Morning civil twilight06:3011:30
Sunrise06:5511:55
Sunset17:3022:30
Evening civil twilight17:5522:55

Current date and time
Zulu (UTC)  06-Dec-2019 16:18:22
Local (UTC-5)  06-Dec-2019 11:18:22
 
METAR
KHST 
6nm S 
061556Z AUTO 10007KT 10SM CLR 24/14 A3016 RMK AO2 SLP217 T02410142
KTMB 
6nm NW 
061553Z 13007KT 10SM CLR 24/15 A3017 RMK AO2 SLP216 T02440150
KMIA 
13nm N 
061553Z 12004KT 10SM FEW045 FEW250 24/13 A3018 RMK AO2 SLP218 T02440133
TAF
KHST 
6nm S 
061200Z 0612/0718 35006KT 9999 FEW050 QNH3011INS BECMG 0702/0703 VRB06KT 9999 BKN030 QNH3014INS BECMG 0708/0709 VRB06KT 9999 SCT020 QNH3011INS TX23/0618Z TN12/0612Z
KTMB 
6nm NW 
061122Z 0612/0712 VRB03KT P6SM SCT250 FM061600 12006KT P6SM FEW250 FM070000 VRB03KT P6SM FEW250
KMIA 
13nm N 
061122Z 0612/0718 35005KT P6SM SCT250 FM061600 12008KT P6SM FEW035 SCT250 FM070000 VRB03KT P6SM SCT250 FM071600 09008KT P6SM SCT250
NOTAMs
Click for the latest NOTAMs
NOTAMs are issued by the DoD/FAA and will open in a separate window not controlled by AirNav.

 

 
 

Would you like to see your business listed on this page?

 If your business provides an interesting product or service to pilots, flight crews, aircraft, or users of the South Dade Community Health Center Heliport, you should consider listing it here.  To start the listing process, click on the button below
 
Add a business
 

Other Pages about South Dade Community Health Center Heliport

Update a link
 
Copyright © AirNav, LLC. All rights reserved. Privacy Policy  Contact